sensor_id;sensor_type;location;lat;lon;timestamp;temperature;humidity
1461;DHT22;724;49.910;12.530;2022-08-01T00:01:52;16.60;32.80
1461;DHT22;724;49.910;12.530;2022-08-01T00:04:19;16.50;28.70
1461;DHT22;724;49.910;12.530;2022-08-01T00:06:45;16.50;41.90
1461;DHT22;724;49.910;12.530;2022-08-01T00:09:12;16.50;66.80
1461;DHT22;724;49.910;12.530;2022-08-01T00:11:39;16.50;90.50
1461;DHT22;724;49.910;12.530;2022-08-01T00:14:07;16.60;90.90
1461;DHT22;724;49.910;12.530;2022-08-01T00:16:36;16.50;88.60
1461;DHT22;724;49.910;12.530;2022-08-01T00:19:04;16.40;90.00
1461;DHT22;724;49.910;12.530;2022-08-01T00:21:31;16.40;92.70
1461;DHT22;724;49.910;12.530;2022-08-01T00:23:57;16.40;92.50
1461;DHT22;724;49.910;12.530;2022-08-01T00:26:24;16.40;93.00
1461;DHT22;724;49.910;12.530;2022-08-01T00:28:51;16.40;97.40
1461;DHT22;724;49.910;12.530;2022-08-01T00:31:18;16.40;99.90
1461;DHT22;724;49.910;12.530;2022-08-01T00:33:44;16.50;99.90
1461;DHT22;724;49.910;12.530;2022-08-01T00:36:13;16.50;99.90
1461;DHT22;724;49.910;12.530;2022-08-01T00:38:39;16.50;99.90
1461;DHT22;724;49.910;12.530;2022-08-01T00:41:06;16.50;97.20
1461;DHT22;724;49.910;12.530;2022-08-01T00:43:33;16.50;92.70
1461;DHT22;724;49.910;12.530;2022-08-01T00:45:59;16.50;90.00
1461;DHT22;724;49.910;12.530;2022-08-01T00:48:26;16.70;77.80
1461;DHT22;724;49.910;12.530;2022-08-01T00:50:53;16.80;63.30
1461;DHT22;724;49.910;12.530;2022-08-01T00:53:21;16.90;37.30
1461;DHT22;724;49.910;12.530;2022-08-01T00:55:48;17.10;14.80
1461;DHT22;724;49.910;12.530;2022-08-01T00:58:15;17.10;8.30
1461;DHT22;724;49.910;12.530;2022-08-01T01:00:41;17.10;5.60
1461;DHT22;724;49.910;12.530;2022-08-01T01:03:08;17.10;1.70
1461;DHT22;724;49.910;12.530;2022-08-01T01:05:40;17.10;6.10
1461;DHT22;724;49.910;12.530;2022-08-01T01:08:16;17.20;1.00
1461;DHT22;724;49.910;12.530;2022-08-01T01:10:52;17.10;1.00
1461;DHT22;724;49.910;12.530;2022-08-01T01:13:25;17.10;16.60
1461;DHT22;724;49.910;12.530;2022-08-01T01:15:58;17.00;37.20
1461;DHT22;724;49.910;12.530;2022-08-01T01:18:30;17.00;69.40
1461;DHT22;724;49.910;12.530;2022-08-01T01:21:01;17.00;94.40
1461;DHT22;724;49.910;12.530;2022-08-01T01:23:44;16.90;99.90
1461;DHT22;724;49.910;12.530;2022-08-01T01:26:29;17.00;99.90
1461;DHT22;724;49.910;12.530;2022-08-01T01:29:04;17.00;99.90
1461;DHT22;724;49.910;12.530;2022-08-01T01:31:49;16.90;99.90
1461;DHT22;724;49.910;12.530;2022-08-01T01:34:20;16.80;99.90
1461;DHT22;724;49.910;12.530;2022-08-01T01:36:48;16.60;99.90
1461;DHT22;724;49.910;12.530;2022-08-01T01:39:17;16.50;99.90
1461;DHT22;724;49.910;12.530;2022-08-01T01:41:45;16.60;99.90
1461;DHT22;724;49.910;12.530;2022-08-01T01:44:15;16.60;99.90
1461;DHT22;724;49.910;12.530;2022-08-01T01:46:42;16.50;99.90
1461;DHT22;724;49.910;12.530;2022-08-01T01:49:10;16.50;99.90
1461;DHT22;724;49.910;12.530;2022-08-01T01:51:39;16.50;99.90
1461;DHT22;724;49.910;12.530;2022-08-01T01:54:08;16.40;99.90
1461;DHT22;724;49.910;12.530;2022-08-01T01:56:36;16.30;99.90
1461;DHT22;724;49.910;12.530;2022-08-01T01:59:18;16.30;99.90
1461;DHT22;724;49.910;12.530;2022-08-01T02:01:47;16.20;99.90
1461;DHT22;724;49.910;12.530;2022-08-01T02:04:15;16.20;1.00
1461;DHT22;724;49.910;12.530;2022-08-01T02:06:43;16.10;1.00
1461;DHT22;724;49.910;12.530;2022-08-01T02:09:12;16.20;1.00
1461;DHT22;724;49.910;12.530;2022-08-01T02:11:41;16.20;1.00
1461;DHT22;724;49.910;12.530;2022-08-01T02:14:09;16.20;1.00
1461;DHT22;724;49.910;12.530;2022-08-01T02:16:40;16.10;1.00
1461;DHT22;724;49.910;12.530;2022-08-01T02:19:08;16.20;1.00
1461;DHT22;724;49.910;12.530;2022-08-01T02:21:40;16.10;1.00
1461;DHT22;724;49.910;12.530;2022-08-01T02:24:13;16.10;1.00
1461;DHT22;724;49.910;12.530;2022-08-01T02:26:46;16.00;1.00
1461;DHT22;724;49.910;12.530;2022-08-01T02:29:18;15.90;1.00
1461;DHT22;724;49.910;12.530;2022-08-01T02:31:50;15.80;1.00
1461;DHT22;724;49.910;12.530;2022-08-01T02:34:21;16.00;1.00
1461;DHT22;724;49.910;12.530;2022-08-01T02:36:49;15.90;1.00
1461;DHT22;724;49.910;12.530;2022-08-01T02:39:19;15.40;1.00
1461;DHT22;724;49.910;12.530;2022-08-01T02:41:50;15.50;1.00
1461;DHT22;724;49.910;12.530;2022-08-01T02:44:23;15.40;1.00
1461;DHT22;724;49.910;12.530;2022-08-01T02:46:56;15.50;1.00
1461;DHT22;724;49.910;12.530;2022-08-01T02:49:24;15.40;1.00
1461;DHT22;724;49.910;12.530;2022-08-01T02:51:53;15.50;1.00
1461;DHT22;724;49.910;12.530;2022-08-01T02:54:21;15.50;1.00
1461;DHT22;724;49.910;12.530;2022-08-01T02:56:50;15.50;1.00
1461;DHT22;724;49.910;12.530;2022-08-01T02:59:19;15.50;1.00
1461;DHT22;724;49.910;12.530;2022-08-01T03:01:50;15.50;1.00
1461;DHT22;724;49.910;12.530;2022-08-01T03:04:20;15.60;1.00
1461;DHT22;724;49.910;12.530;2022-08-01T03:06:47;15.60;1.00
1461;DHT22;724;49.910;12.530;2022-08-01T03:09:14;15.60;1.00
1461;DHT22;724;49.910;12.530;2022-08-01T03:11:44;15.60;1.00
1461;DHT22;724;49.910;12.530;2022-08-01T03:14:12;15.60;1.00
1461;DHT22;724;49.910;12.530;2022-08-01T03:16:41;15.40;1.00
1461;DHT22;724;49.910;12.530;2022-08-01T03:19:10;15.40;1.00
1461;DHT22;724;49.910;12.530;2022-08-01T03:21:40;15.40;1.00
1461;DHT22;724;49.910;12.530;2022-08-01T03:24:10;15.40;1.00
1461;DHT22;724;49.910;12.530;2022-08-01T03:26:38;15.30;1.00
1461;DHT22;724;49.910;12.530;2022-08-01T03:29:08;15.10;1.00
1461;DHT22;724;49.910;12.530;2022-08-01T03:31:38;15.10;1.00
1461;DHT22;724;49.910;12.530;2022-08-01T03:34:08;15.10;1.00
1461;DHT22;724;49.910;12.530;2022-08-01T03:36:45;15.10;1.00
1461;DHT22;724;49.910;12.530;2022-08-01T03:39:13;15.10;1.00
1461;DHT22;724;49.910;12.530;2022-08-01T03:41:49;15.10;1.00
1461;DHT22;724;49.910;12.530;2022-08-01T03:44:22;15.20;1.00
1461;DHT22;724;49.910;12.530;2022-08-01T03:46:53;15.20;1.00
1461;DHT22;724;49.910;12.530;2022-08-01T03:49:25;15.20;1.00
1461;DHT22;724;49.910;12.530;2022-08-01T03:51:55;15.20;1.00
1461;DHT22;724;49.910;12.530;2022-08-01T03:54:24;15.10;1.00
1461;DHT22;724;49.910;12.530;2022-08-01T03:56:52;15.00;1.00
1461;DHT22;724;49.910;12.530;2022-08-01T03:59:20;14.80;1.00
1461;DHT22;724;49.910;12.530;2022-08-01T04:01:47;14.80;1.00
1461;DHT22;724;49.910;12.530;2022-08-01T04:04:15;14.70;1.00
1461;DHT22;724;49.910;12.530;2022-08-01T04:06:42;14.70;1.00
1461;DHT22;724;49.910;12.530;2022-08-01T04:09:11;14.80;1.00
1461;DHT22;724;49.910;12.530;2022-08-01T04:11:39;14.80;1.00
1461;DHT22;724;49.910;12.530;2022-08-01T04:14:06;14.80;1.00
1461;DHT22;724;49.910;12.530;2022-08-01T04:16:33;14.80;1.00
1461;DHT22;724;49.910;12.530;2022-08-01T04:19:00;14.90;1.00
1461;DHT22;724;49.910;12.530;2022-08-01T04:21:28;15.00;1.00
1461;DHT22;724;49.910;12.530;2022-08-01T04:23:59;15.00;1.00
1461;DHT22;724;49.910;12.530;2022-08-01T04:26:30;15.00;1.00
1461;DHT22;724;49.910;12.530;2022-08-01T04:29:00;15.10;1.00
1461;DHT22;724;49.910;12.530;2022-08-01T04:31:29;15.10;1.00
1461;DHT22;724;49.910;12.530;2022-08-01T04:33:57;15.20;1.00
1461;DHT22;724;49.910;12.530;2022-08-01T04:36:25;15.20;1.00
1461;DHT22;724;49.910;12.530;2022-08-01T04:38:55;15.40;1.00
1461;DHT22;724;49.910;12.530;2022-08-01T04:41:22;15.40;1.00
1461;DHT22;724;49.910;12.530;2022-08-01T04:43:51;15.40;1.00
1461;DHT22;724;49.910;12.530;2022-08-01T04:46:20;15.50;1.00
1461;DHT22;724;49.910;12.530;2022-08-01T04:48:47;15.50;1.00
1461;DHT22;724;49.910;12.530;2022-08-01T04:51:15;15.50;1.00
1461;DHT22;724;49.910;12.530;2022-08-01T04:53:43;15.20;1.00
1461;DHT22;724;49.910;12.530;2022-08-01T04:56:11;15.20;1.00
1461;DHT22;724;49.910;12.530;2022-08-01T04:58:38;15.40;1.00
1461;DHT22;724;49.910;12.530;2022-08-01T05:01:07;15.60;1.00
1461;DHT22;724;49.910;12.530;2022-08-01T05:03:34;15.60;1.00
1461;DHT22;724;49.910;12.530;2022-08-01T05:06:01;15.60;1.00
1461;DHT22;724;49.910;12.530;2022-08-01T05:08:28;15.70;1.00
1461;DHT22;724;49.910;12.530;2022-08-01T05:10:55;15.90;1.00
1461;DHT22;724;49.910;12.530;2022-08-01T05:13:21;16.10;1.00
1461;DHT22;724;49.910;12.530;2022-08-01T05:15:48;16.50;1.00
1461;DHT22;724;49.910;12.530;2022-08-01T05:18:16;16.70;1.00
1461;DHT22;724;49.910;12.530;2022-08-01T05:20:43;17.00;1.00
1461;DHT22;724;49.910;12.530;2022-08-01T05:23:10;17.40;1.00
1461;DHT22;724;49.910;12.530;2022-08-01T05:25:37;17.80;1.00
1461;DHT22;724;49.910;12.530;2022-08-01T05:28:04;18.20;1.00
1461;DHT22;724;49.910;12.530;2022-08-01T05:30:31;18.10;99.90
1461;DHT22;724;49.910;12.530;2022-08-01T05:33:01;18.30;99.90
1461;DHT22;724;49.910;12.530;2022-08-01T05:35:29;18.80;99.90
1461;DHT22;724;49.910;12.530;2022-08-01T05:37:56;19.00;99.90
1461;DHT22;724;49.910;12.530;2022-08-01T05:40:22;19.30;99.90
1461;DHT22;724;49.910;12.530;2022-08-01T05:42:49;19.90;99.90
1461;DHT22;724;49.910;12.530;2022-08-01T05:45:16;20.50;99.90
1461;DHT22;724;49.910;12.530;2022-08-01T05:47:43;20.90;99.90
1461;DHT22;724;49.910;12.530;2022-08-01T05:50:09;21.20;99.90
1461;DHT22;724;49.910;12.530;2022-08-01T05:52:40;21.50;99.90
1461;DHT22;724;49.910;12.530;2022-08-01T05:55:08;21.20;99.90
1461;DHT22;724;49.910;12.530;2022-08-01T05:57:34;21.00;99.90
1461;DHT22;724;49.910;12.530;2022-08-01T06:00:01;21.20;99.90
1461;DHT22;724;49.910;12.530;2022-08-01T06:02:28;21.30;99.90
1461;DHT22;724;49.910;12.530;2022-08-01T06:04:55;21.00;99.90
1461;DHT22;724;49.910;12.530;2022-08-01T06:07:22;21.10;99.90
1461;DHT22;724;49.910;12.530;2022-08-01T06:09:50;21.30;99.90
1461;DHT22;724;49.910;12.530;2022-08-01T06:12:16;21.30;99.90
1461;DHT22;724;49.910;12.530;2022-08-01T06:14:43;20.70;99.90
1461;DHT22;724;49.910;12.530;2022-08-01T06:17:10;20.80;99.90
1461;DHT22;724;49.910;12.530;2022-08-01T06:19:37;20.80;99.90
1461;DHT22;724;49.910;12.530;2022-08-01T06:22:03;21.20;99.90
1461;DHT22;724;49.910;12.530;2022-08-01T06:24:30;21.40;99.90
1461;DHT22;724;49.910;12.530;2022-08-01T06:26:58;21.20;99.90
1461;DHT22;724;49.910;12.530;2022-08-01T06:29:25;21.10;99.90
1461;DHT22;724;49.910;12.530;2022-08-01T06:31:51;21.60;99.90
1461;DHT22;724;49.910;12.530;2022-08-01T06:34:18;22.10;92.10
1461;DHT22;724;49.910;12.530;2022-08-01T06:36:46;22.20;78.30
1461;DHT22;724;49.910;12.530;2022-08-01T06:39:13;22.10;65.20
1461;DHT22;724;49.910;12.530;2022-08-01T06:41:39;22.00;49.10
1461;DHT22;724;49.910;12.530;2022-08-01T06:44:09;22.40;53.80
1461;DHT22;724;49.910;12.530;2022-08-01T06:46:35;22.90;32.80
1461;DHT22;724;49.910;12.530;2022-08-01T06:49:02;23.80;17.40
1461;DHT22;724;49.910;12.530;2022-08-01T06:51:29;24.70;1.00
1461;DHT22;724;49.910;12.530;2022-08-01T06:53:56;24.30;1.00
1461;DHT22;724;49.910;12.530;2022-08-01T06:56:22;23.70;1.00
1461;DHT22;724;49.910;12.530;2022-08-01T06:58:49;23.30;1.00
1461;DHT22;724;49.910;12.530;2022-08-01T07:01:18;22.70;1.00
1461;DHT22;724;49.910;12.530;2022-08-01T07:03:44;22.60;1.00
1461;DHT22;724;49.910;12.530;2022-08-01T07:06:11;21.80;1.00
1461;DHT22;724;49.910;12.530;2022-08-01T07:08:40;21.60;1.00
1461;DHT22;724;49.910;12.530;2022-08-01T07:11:07;21.20;1.00
1461;DHT22;724;49.910;12.530;2022-08-01T07:13:33;21.20;1.00
1461;DHT22;724;49.910;12.530;2022-08-01T07:16:00;23.50;1.00
1461;DHT22;724;49.910;12.530;2022-08-01T07:18:28;24.30;1.00
1461;DHT22;724;49.910;12.530;2022-08-01T07:20:55;24.70;1.00
1461;DHT22;724;49.910;12.530;2022-08-01T07:23:22;23.70;1.00
1461;DHT22;724;49.910;12.530;2022-08-01T07:25:48;23.00;1.00
1461;DHT22;724;49.910;12.530;2022-08-01T07:28:18;22.80;1.00
1461;DHT22;724;49.910;12.530;2022-08-01T07:30:44;22.70;1.00
1461;DHT22;724;49.910;12.530;2022-08-01T07:33:11;22.50;1.00
1461;DHT22;724;49.910;12.530;2022-08-01T07:35:40;22.20;1.00
1461;DHT22;724;49.910;12.530;2022-08-01T07:38:07;22.80;1.00
1461;DHT22;724;49.910;12.530;2022-08-01T07:40:34;22.50;1.00
1461;DHT22;724;49.910;12.530;2022-08-01T07:43:01;22.00;1.00
1461;DHT22;724;49.910;12.530;2022-08-01T07:45:27;21.40;1.00
1461;DHT22;724;49.910;12.530;2022-08-01T07:47:54;21.10;1.00
1461;DHT22;724;49.910;12.530;2022-08-01T07:50:21;20.90;1.00
1461;DHT22;724;49.910;12.530;2022-08-01T07:52:49;20.80;1.00
1461;DHT22;724;49.910;12.530;2022-08-01T07:55:16;21.00;1.00
1461;DHT22;724;49.910;12.530;2022-08-01T07:57:42;21.30;1.00
1461;DHT22;724;49.910;12.530;2022-08-01T08:00:10;21.90;1.00
1461;DHT22;724;49.910;12.530;2022-08-01T08:02:37;23.80;1.00
1461;DHT22;724;49.910;12.530;2022-08-01T08:05:04;24.40;1.00
1461;DHT22;724;49.910;12.530;2022-08-01T08:07:32;24.50;1.00
1461;DHT22;724;49.910;12.530;2022-08-01T08:10:01;24.00;1.00
1461;DHT22;724;49.910;12.530;2022-08-01T08:12:27;24.50;1.00
1461;DHT22;724;49.910;12.530;2022-08-01T08:14:54;24.30;1.00
1461;DHT22;724;49.910;12.530;2022-08-01T08:17:21;24.90;1.00
1461;DHT22;724;49.910;12.530;2022-08-01T08:19:47;24.00;1.00
1461;DHT22;724;49.910;12.530;2022-08-01T08:22:14;23.60;1.00
1461;DHT22;724;49.910;12.530;2022-08-01T08:24:41;22.40;1.00
1461;DHT22;724;49.910;12.530;2022-08-01T08:27:09;22.70;1.00
1461;DHT22;724;49.910;12.530;2022-08-01T08:29:36;22.90;1.00
1461;DHT22;724;49.910;12.530;2022-08-01T08:32:03;22.90;1.00
1461;DHT22;724;49.910;12.530;2022-08-01T08:34:30;22.30;1.00
1461;DHT22;724;49.910;12.530;2022-08-01T08:36:57;22.20;1.00
1461;DHT22;724;49.910;12.530;2022-08-01T08:39:25;22.20;1.00
1461;DHT22;724;49.910;12.530;2022-08-01T08:41:52;22.40;1.00
1461;DHT22;724;49.910;12.530;2022-08-01T08:44:20;23.90;1.00
1461;DHT22;724;49.910;12.530;2022-08-01T08:46:49;25.20;1.00
1461;DHT22;724;49.910;12.530;2022-08-01T08:49:22;26.10;1.00
1461;DHT22;724;49.910;12.530;2022-08-01T08:51:50;27.00;1.00
1461;DHT22;724;49.910;12.530;2022-08-01T08:54:19;25.80;1.00
1461;DHT22;724;49.910;12.530;2022-08-01T08:56:47;24.20;1.00
1461;DHT22;724;49.910;12.530;2022-08-01T08:59:14;23.80;1.00
1461;DHT22;724;49.910;12.530;2022-08-01T09:01:43;24.90;1.00
1461;DHT22;724;49.910;12.530;2022-08-01T09:04:11;25.30;1.00
1461;DHT22;724;49.910;12.530;2022-08-01T09:06:39;25.00;1.00
1461;DHT22;724;49.910;12.530;2022-08-01T09:09:07;24.20;1.00
1461;DHT22;724;49.910;12.530;2022-08-01T09:11:34;24.20;1.00
1461;DHT22;724;49.910;12.530;2022-08-01T09:14:04;24.80;1.00
1461;DHT22;724;49.910;12.530;2022-08-01T09:16:32;25.70;1.00
1461;DHT22;724;49.910;12.530;2022-08-01T09:19:12;26.60;1.00
1461;DHT22;724;49.910;12.530;2022-08-01T09:21:40;26.50;1.00
1461;DHT22;724;49.910;12.530;2022-08-01T09:24:14;25.30;1.00
1461;DHT22;724;49.910;12.530;2022-08-01T09:26:43;25.50;1.00
1461;DHT22;724;49.910;12.530;2022-08-01T09:29:18;26.00;1.00
1461;DHT22;724;49.910;12.530;2022-08-01T09:31:46;25.90;1.00
1461;DHT22;724;49.910;12.530;2022-08-01T09:34:15;26.80;1.00
1461;DHT22;724;49.910;12.530;2022-08-01T09:36:50;27.50;1.00
1461;DHT22;724;49.910;12.530;2022-08-01T09:39:22;26.50;1.00
1461;DHT22;724;49.910;12.530;2022-08-01T09:41:50;26.90;1.00
1461;DHT22;724;49.910;12.530;2022-08-01T09:44:18;27.00;1.00
1461;DHT22;724;49.910;12.530;2022-08-01T09:46:50;29.00;1.00
1461;DHT22;724;49.910;12.530;2022-08-01T09:49:30;28.30;1.00
1461;DHT22;724;49.910;12.530;2022-08-01T09:51:58;26.90;1.00
1461;DHT22;724;49.910;12.530;2022-08-01T09:54:30;25.60;1.00
1461;DHT22;724;49.910;12.530;2022-08-01T09:57:08;25.00;1.00
1461;DHT22;724;49.910;12.530;2022-08-01T09:59:36;25.20;1.00
1461;DHT22;724;49.910;12.530;2022-08-01T10:02:06;25.00;1.00
1461;DHT22;724;49.910;12.530;2022-08-01T10:04:34;24.40;1.00
1461;DHT22;724;49.910;12.530;2022-08-01T10:07:05;24.50;1.00
1461;DHT22;724;49.910;12.530;2022-08-01T10:09:33;24.40;1.00
1461;DHT22;724;49.910;12.530;2022-08-01T10:12:00;25.40;1.00
1461;DHT22;724;49.910;12.530;2022-08-01T10:14:29;26.10;1.00
1461;DHT22;724;49.910;12.530;2022-08-01T10:16:59;25.40;1.00
1461;DHT22;724;49.910;12.530;2022-08-01T10:19:29;25.40;1.00
1461;DHT22;724;49.910;12.530;2022-08-01T10:21:59;24.80;1.00
1461;DHT22;724;49.910;12.530;2022-08-01T10:24:29;25.20;1.00
1461;DHT22;724;49.910;12.530;2022-08-01T10:26:59;25.50;1.00
1461;DHT22;724;49.910;12.530;2022-08-01T10:29:33;24.70;1.00
1461;DHT22;724;49.910;12.530;2022-08-01T10:32:03;25.00;1.00
1461;DHT22;724;49.910;12.530;2022-08-01T10:34:31;24.60;1.00
1461;DHT22;724;49.910;12.530;2022-08-01T10:37:01;24.40;1.00
1461;DHT22;724;49.910;12.530;2022-08-01T10:39:28;24.50;1.00
1461;DHT22;724;49.910;12.530;2022-08-01T10:41:56;25.00;1.00
1461;DHT22;724;49.910;12.530;2022-08-01T10:44:24;26.30;1.00
1461;DHT22;724;49.910;12.530;2022-08-01T10:46:55;26.90;1.00
1461;DHT22;724;49.910;12.530;2022-08-01T10:49:25;26.90;1.00
1461;DHT22;724;49.910;12.530;2022-08-01T10:51:53;25.80;1.00
1461;DHT22;724;49.910;12.530;2022-08-01T10:54:24;25.30;1.00
1461;DHT22;724;49.910;12.530;2022-08-01T10:56:51;25.00;1.00
1461;DHT22;724;49.910;12.530;2022-08-01T10:59:21;24.30;1.00
1461;DHT22;724;49.910;12.530;2022-08-01T11:01:56;24.30;1.00
1461;DHT22;724;49.910;12.530;2022-08-01T11:04:33;23.80;1.00
1461;DHT22;724;49.910;12.530;2022-08-01T11:07:05;24.00;1.00
1461;DHT22;724;49.910;12.530;2022-08-01T11:09:41;24.70;1.00
1461;DHT22;724;49.910;12.530;2022-08-01T11:12:10;25.10;1.00
1461;DHT22;724;49.910;12.530;2022-08-01T11:17:43;25.60;1.00
1461;DHT22;724;49.910;12.530;2022-08-01T11:20:14;25.20;1.00
1461;DHT22;724;49.910;12.530;2022-08-01T11:26:21;25.50;1.00
1461;DHT22;724;49.910;12.530;2022-08-01T11:29:11;25.30;1.00
1461;DHT22;724;49.910;12.530;2022-08-01T11:31:38;25.20;1.00
1461;DHT22;724;49.910;12.530;2022-08-01T11:34:05;25.40;1.00
1461;DHT22;724;49.910;12.530;2022-08-01T11:36:32;26.30;1.00
1461;DHT22;724;49.910;12.530;2022-08-01T11:39:18;26.10;1.00
1461;DHT22;724;49.910;12.530;2022-08-01T11:41:49;25.70;1.00
1461;DHT22;724;49.910;12.530;2022-08-01T11:44:20;25.50;1.00
1461;DHT22;724;49.910;12.530;2022-08-01T11:47:08;24.60;1.00
1461;DHT22;724;49.910;12.530;2022-08-01T11:49:47;24.00;1.00
1461;DHT22;724;49.910;12.530;2022-08-01T11:52:26;23.70;1.00
1461;DHT22;724;49.910;12.530;2022-08-01T11:54:54;23.90;1.00
1461;DHT22;724;49.910;12.530;2022-08-01T11:57:24;24.40;1.00
1461;DHT22;724;49.910;12.530;2022-08-01T11:59:53;25.30;1.00
1461;DHT22;724;49.910;12.530;2022-08-01T12:02:22;25.40;1.00
1461;DHT22;724;49.910;12.530;2022-08-01T12:04:52;25.00;1.00
1461;DHT22;724;49.910;12.530;2022-08-01T12:07:19;24.90;1.00
1461;DHT22;724;49.910;12.530;2022-08-01T12:09:47;24.80;1.00
1461;DHT22;724;49.910;12.530;2022-08-01T12:12:17;24.30;1.00
1461;DHT22;724;49.910;12.530;2022-08-01T12:14:52;24.20;1.00
1461;DHT22;724;49.910;12.530;2022-08-01T12:17:27;24.00;1.00
1461;DHT22;724;49.910;12.530;2022-08-01T12:19:54;24.10;1.00
1461;DHT22;724;49.910;12.530;2022-08-01T12:22:23;24.70;1.00
1461;DHT22;724;49.910;12.530;2022-08-01T12:24:50;24.90;1.00
1461;DHT22;724;49.910;12.530;2022-08-01T12:27:24;24.10;1.00
1461;DHT22;724;49.910;12.530;2022-08-01T12:29:53;24.00;1.00
1461;DHT22;724;49.910;12.530;2022-08-01T12:32:25;23.80;1.00
1461;DHT22;724;49.910;12.530;2022-08-01T12:34:54;24.20;1.00
1461;DHT22;724;49.910;12.530;2022-08-01T12:37:23;24.50;1.00
1461;DHT22;724;49.910;12.530;2022-08-01T12:39:50;24.30;1.00
1461;DHT22;724;49.910;12.530;2022-08-01T12:42:17;24.40;1.00
1461;DHT22;724;49.910;12.530;2022-08-01T12:44:48;24.40;1.00
1461;DHT22;724;49.910;12.530;2022-08-01T12:47:18;24.30;1.00
1461;DHT22;724;49.910;12.530;2022-08-01T12:49:45;24.10;1.00
1461;DHT22;724;49.910;12.530;2022-08-01T12:52:14;24.20;1.00
1461;DHT22;724;49.910;12.530;2022-08-01T12:55:10;24.00;1.00
1461;DHT22;724;49.910;12.530;2022-08-01T12:57:39;23.70;1.00
1461;DHT22;724;49.910;12.530;2022-08-01T13:00:08;23.60;1.00
1461;DHT22;724;49.910;12.530;2022-08-01T13:02:39;23.70;1.00
1461;DHT22;724;49.910;12.530;2022-08-01T13:05:06;23.60;1.00
1461;DHT22;724;49.910;12.530;2022-08-01T13:07:54;23.40;1.00
1461;DHT22;724;49.910;12.530;2022-08-01T13:10:27;23.30;1.00
1461;DHT22;724;49.910;12.530;2022-08-01T13:12:56;23.30;1.00
1461;DHT22;724;49.910;12.530;2022-08-01T13:15:28;23.50;1.00
1461;DHT22;724;49.910;12.530;2022-08-01T13:18:00;23.50;1.00
1461;DHT22;724;49.910;12.530;2022-08-01T13:20:30;23.60;1.00
1461;DHT22;724;49.910;12.530;2022-08-01T13:23:11;23.70;1.00
1461;DHT22;724;49.910;12.530;2022-08-01T13:25:47;23.90;1.00
1461;DHT22;724;49.910;12.530;2022-08-01T13:28:15;24.10;1.00
1461;DHT22;724;49.910;12.530;2022-08-01T13:30:54;24.50;1.00
1461;DHT22;724;49.910;12.530;2022-08-01T13:33:23;25.10;1.00
1461;DHT22;724;49.910;12.530;2022-08-01T13:35:52;25.10;1.00
1461;DHT22;724;49.910;12.530;2022-08-01T13:38:19;25.10;1.00
1461;DHT22;724;49.910;12.530;2022-08-01T13:41:06;25.50;1.00
1461;DHT22;724;49.910;12.530;2022-08-01T13:43:32;25.30;1.00
1461;DHT22;724;49.910;12.530;2022-08-01T13:46:00;25.50;1.00
1461;DHT22;724;49.910;12.530;2022-08-01T13:48:30;25.70;1.00
1461;DHT22;724;49.910;12.530;2022-08-01T13:50:56;25.60;1.00
1461;DHT22;724;49.910;12.530;2022-08-01T13:53:23;26.00;1.00
1461;DHT22;724;49.910;12.530;2022-08-01T13:55:50;26.30;1.00
1461;DHT22;724;49.910;12.530;2022-08-01T13:58:17;26.20;1.00
1461;DHT22;724;49.910;12.530;2022-08-01T14:00:44;26.30;1.00
1461;DHT22;724;49.910;12.530;2022-08-01T14:03:10;26.00;1.00
1461;DHT22;724;49.910;12.530;2022-08-01T14:05:39;26.00;1.00
1461;DHT22;724;49.910;12.530;2022-08-01T14:08:06;26.20;1.00
1461;DHT22;724;49.910;12.530;2022-08-01T14:10:34;26.40;1.00
1461;DHT22;724;49.910;12.530;2022-08-01T14:13:01;26.50;1.00
1461;DHT22;724;49.910;12.530;2022-08-01T14:15:27;26.70;1.00
1461;DHT22;724;49.910;12.530;2022-08-01T14:17:54;26.50;1.00
1461;DHT22;724;49.910;12.530;2022-08-01T14:20:21;26.20;1.00
1461;DHT22;724;49.910;12.530;2022-08-01T14:22:49;25.90;1.00
1461;DHT22;724;49.910;12.530;2022-08-01T14:25:16;25.50;1.00
1461;DHT22;724;49.910;12.530;2022-08-01T14:27:43;25.10;1.00
1461;DHT22;724;49.910;12.530;2022-08-01T14:30:11;24.60;1.00
1461;DHT22;724;49.910;12.530;2022-08-01T14:32:38;24.60;1.00
1461;DHT22;724;49.910;12.530;2022-08-01T14:35:06;24.40;1.00
1461;DHT22;724;49.910;12.530;2022-08-01T14:37:33;24.20;1.00
1461;DHT22;724;49.910;12.530;2022-08-01T14:40:01;24.20;1.00
1461;DHT22;724;49.910;12.530;2022-08-01T14:42:32;23.70;1.00
1461;DHT22;724;49.910;12.530;2022-08-01T14:44:59;23.70;1.00
1461;DHT22;724;49.910;12.530;2022-08-01T14:47:26;24.20;1.00
1461;DHT22;724;49.910;12.530;2022-08-01T14:49:53;24.10;1.00
1461;DHT22;724;49.910;12.530;2022-08-01T14:52:20;23.70;1.00
1461;DHT22;724;49.910;12.530;2022-08-01T14:54:46;23.80;1.00
1461;DHT22;724;49.910;12.530;2022-08-01T14:57:14;24.30;1.00
1461;DHT22;724;49.910;12.530;2022-08-01T14:59:43;24.30;1.00
1461;DHT22;724;49.910;12.530;2022-08-01T15:02:10;24.40;1.00
1461;DHT22;724;49.910;12.530;2022-08-01T15:04:38;24.10;1.00
1461;DHT22;724;49.910;12.530;2022-08-01T15:07:04;24.70;1.00
1461;DHT22;724;49.910;12.530;2022-08-01T15:09:31;24.70;1.00
1461;DHT22;724;49.910;12.530;2022-08-01T15:11:58;24.50;1.00
1461;DHT22;724;49.910;12.530;2022-08-01T15:14:26;24.40;1.00
1461;DHT22;724;49.910;12.530;2022-08-01T15:17:10;24.70;1.00
1461;DHT22;724;49.910;12.530;2022-08-01T15:19:37;24.90;1.00
1461;DHT22;724;49.910;12.530;2022-08-01T15:22:04;25.30;1.00
1461;DHT22;724;49.910;12.530;2022-08-01T15:24:31;25.20;1.00
1461;DHT22;724;49.910;12.530;2022-08-01T15:26:57;25.10;1.00
1461;DHT22;724;49.910;12.530;2022-08-01T15:29:25;24.90;1.00
1461;DHT22;724;49.910;12.530;2022-08-01T15:31:52;24.70;1.00
1461;DHT22;724;49.910;12.530;2022-08-01T15:34:19;24.50;1.00
1461;DHT22;724;49.910;12.530;2022-08-01T15:36:45;24.70;1.00
1461;DHT22;724;49.910;12.530;2022-08-01T15:39:12;24.70;1.00
1461;DHT22;724;49.910;12.530;2022-08-01T15:41:40;25.10;1.00
1461;DHT22;724;49.910;12.530;2022-08-01T15:44:07;24.70;1.00
1461;DHT22;724;49.910;12.530;2022-08-01T15:46:35;24.00;1.00
1461;DHT22;724;49.910;12.530;2022-08-01T15:49:02;23.70;1.00
1461;DHT22;724;49.910;12.530;2022-08-01T15:51:29;23.60;1.00
1461;DHT22;724;49.910;12.530;2022-08-01T15:53:56;23.70;1.00
1461;DHT22;724;49.910;12.530;2022-08-01T15:56:23;24.10;1.00
1461;DHT22;724;49.910;12.530;2022-08-01T15:58:50;24.30;1.00
1461;DHT22;724;49.910;12.530;2022-08-01T16:01:17;24.40;1.00
1461;DHT22;724;49.910;12.530;2022-08-01T16:03:45;24.20;1.00
1461;DHT22;724;49.910;12.530;2022-08-01T16:06:12;24.70;1.00
1461;DHT22;724;49.910;12.530;2022-08-01T16:08:38;24.40;1.00
1461;DHT22;724;49.910;12.530;2022-08-01T16:11:05;24.30;1.00
1461;DHT22;724;49.910;12.530;2022-08-01T16:13:32;24.70;1.00
1461;DHT22;724;49.910;12.530;2022-08-01T16:15:58;24.70;1.00
1461;DHT22;724;49.910;12.530;2022-08-01T16:18:27;24.70;1.00
1461;DHT22;724;49.910;12.530;2022-08-01T16:20:55;24.50;1.00
1461;DHT22;724;49.910;12.530;2022-08-01T16:23:23;24.50;1.00
1461;DHT22;724;49.910;12.530;2022-08-01T16:25:50;24.10;1.00
1461;DHT22;724;49.910;12.530;2022-08-01T16:28:17;24.20;1.00
1461;DHT22;724;49.910;12.530;2022-08-01T16:30:44;24.40;1.00
1461;DHT22;724;49.910;12.530;2022-08-01T16:33:11;24.90;1.00